createdAt,value
2019-01-08T00:01:20.885Z,90.68
2019-01-08T00:03:54.062Z,90.16
2019-01-08T00:06:31.817Z,89.56
2019-01-08T00:09:06.130Z,88.55
2019-01-08T00:11:39.648Z,87.69
2019-01-08T00:14:12.882Z,87.39
2019-01-08T00:16:46.338Z,87.19
2019-01-08T00:19:19.524Z,87.13
2019-01-08T00:22:01.951Z,87.10
2019-01-08T00:24:33.459Z,87.16
2019-01-08T00:27:07.207Z,87.09
2019-01-08T00:29:38.970Z,86.98
2019-01-08T00:32:12.907Z,86.89
2019-01-08T00:34:46.113Z,86.63
2019-01-08T00:37:29.496Z,86.34
2019-01-08T00:40:02.748Z,86.38
2019-01-08T00:42:36.918Z,86.43
2019-01-08T00:45:08.596Z,86.35
2019-01-08T00:47:42.127Z,86.27
2019-01-08T00:50:16.134Z,86.28
2019-01-08T00:52:50.858Z,86.14
2019-01-08T00:55:24.528Z,85.92
2019-01-08T00:57:58.098Z,85.82
2019-01-08T01:00:32.348Z,85.96
2019-01-08T01:03:15.930Z,86.09
2019-01-08T01:05:58.618Z,86.02
2019-01-08T01:08:32.962Z,85.75
2019-01-08T01:11:06.271Z,85.72
2019-01-08T01:13:49.482Z,85.83
2019-01-08T01:16:22.955Z,85.86
2019-01-08T01:18:57.049Z,85.72
2019-01-08T01:21:33.975Z,85.16
2019-01-08T01:24:07.879Z,84.92
2019-01-08T01:26:41.860Z,84.69
2019-01-08T01:29:16.503Z,84.43
2019-01-08T01:31:50.323Z,84.42
2019-01-08T01:34:35.006Z,84.30
2019-01-08T01:37:06.506Z,84.25
2019-01-08T01:39:39.708Z,84.24
2019-01-08T01:42:13.401Z,84.24
2019-01-08T01:44:48.767Z,84.08
2019-01-08T01:47:21.976Z,83.82
2019-01-08T01:49:56.089Z,83.63
2019-01-08T01:52:29.442Z,83.25
2019-01-08T01:55:03.134Z,83.23
2019-01-08T01:57:36.657Z,83.00
2019-01-08T02:00:10.144Z,83.04
2019-01-08T02:02:43.275Z,83.08
2019-01-08T02:05:16.033Z,82.86
2019-01-08T02:07:48.873Z,82.74
2019-01-08T02:10:21.793Z,82.67
2019-01-08T02:12:54.770Z,82.64
2019-01-08T02:15:28.397Z,82.32
2019-01-08T02:18:02.999Z,82.05
2019-01-08T02:20:48.809Z,82.37
2019-01-08T02:23:31.186Z,82.50
2019-01-08T02:26:08.355Z,82.60
2019-01-08T02:28:51.488Z,82.62
2019-01-08T02:31:33.830Z,82.39
2019-01-08T02:34:07.416Z,82.47
2019-01-08T02:36:50.636Z,82.09
2019-01-08T02:39:23.874Z,81.77
2019-01-08T02:41:57.523Z,82.17
2019-01-08T02:44:31.542Z,82.50
2019-01-08T02:47:05.460Z,83.10
2019-01-08T02:49:48.922Z,83.82
2019-01-08T02:52:23.107Z,84.60
2019-01-08T02:54:57.666Z,85.03
2019-01-08T02:57:30.212Z,85.34
2019-01-08T03:00:02.992Z,85.83
2019-01-08T03:02:45.811Z,85.96
2019-01-08T03:05:27.839Z,86.07
2019-01-08T03:08:01.072Z,86.35
2019-01-08T03:10:34.623Z,86.47
2019-01-08T03:13:08.528Z,86.35
2019-01-08T03:15:53.932Z,86.59
2019-01-08T03:18:27.459Z,86.76
2019-01-08T03:21:03.698Z,86.80
2019-01-08T03:23:37.463Z,87.06
2019-01-08T03:26:12.044Z,87.27
2019-01-08T03:28:49.547Z,87.55
2019-01-08T03:31:23.131Z,87.82
2019-01-08T03:33:56.434Z,87.98
2019-01-08T03:36:30.402Z,88.17
2019-01-08T03:39:05.770Z,88.29
2019-01-08T03:41:39.384Z,88.22
2019-01-08T03:44:13.202Z,88.17
2019-01-08T03:46:55.878Z,88.15
2019-01-08T03:49:29.400Z,88.15
2019-01-08T03:52:07.638Z,88.43
2019-01-08T03:54:40.991Z,88.57
2019-01-08T03:57:14.004Z,88.79
2019-01-08T03:59:57.967Z,89.08
2019-01-08T04:02:31.636Z,89.24
2019-01-08T04:05:17.969Z,89.36
2019-01-08T04:07:51.848Z,89.41
2019-01-08T04:10:25.566Z,89.60
2019-01-08T04:13:09.385Z,89.77
2019-01-08T04:15:53.798Z,90.09
2019-01-08T04:18:28.305Z,90.27
2019-01-08T04:21:13.317Z,90.48
2019-01-08T04:23:46.910Z,90.63
2019-01-08T04:26:19.995Z,90.61
2019-01-08T04:28:53.368Z,90.66
2019-01-08T04:31:26.568Z,90.65
2019-01-08T04:34:00.478Z,90.56
2019-01-08T04:36:33.967Z,90.58
2019-01-08T04:39:08.020Z,90.54
2019-01-08T04:41:42.741Z,90.43
2019-01-08T04:44:16.202Z,90.35
2019-01-08T04:46:49.285Z,90.34
2019-01-08T04:49:22.714Z,90.35
2019-01-08T04:52:04.591Z,90.20
2019-01-08T04:54:38.370Z,90.31
2019-01-08T04:57:13.788Z,90.23
2019-01-08T04:59:47.561Z,90.08
2019-01-08T05:02:33.778Z,89.82
2019-01-08T05:05:07.636Z,89.60
2019-01-08T05:07:41.467Z,89.31
2019-01-08T05:10:15.912Z,89.08
2019-01-08T05:12:48.600Z,88.84
2019-01-08T05:15:21.835Z,88.41
2019-01-08T05:17:55.540Z,88.06
2019-01-08T05:20:29.004Z,87.95
2019-01-08T05:23:02.255Z,87.56
2019-01-08T05:25:36.042Z,86.95
2019-01-08T05:28:09.203Z,86.63
2019-01-08T05:30:51.270Z,86.53
2019-01-08T05:33:25.221Z,86.69
2019-01-08T05:35:59.134Z,87.30
2019-01-08T05:38:48.888Z,87.60
2019-01-08T05:41:22.128Z,87.99
2019-01-08T05:44:02.382Z,88.05
2019-01-08T05:46:36.626Z,88.32
2019-01-08T05:49:19.573Z,88.27
2019-01-08T05:51:52.727Z,88.11
2019-01-08T05:54:26.246Z,87.93
2019-01-08T05:57:00.255Z,88.20
2019-01-08T05:59:42.821Z,88.29
2019-01-08T06:02:17.530Z,88.44
2019-01-08T06:04:50.991Z,88.60
2019-01-08T06:07:24.454Z,88.77
2019-01-08T06:09:59.878Z,89.10
2019-01-08T06:12:33.346Z,89.35
2019-01-08T06:15:06.597Z,89.59
2019-01-08T06:17:38.969Z,89.77
2019-01-08T06:20:12.496Z,89.88
2019-01-08T06:22:46.744Z,89.81
2019-01-08T06:25:20.448Z,89.92
2019-01-08T06:27:54.144Z,90.02
2019-01-08T06:30:36.467Z,90.15
2019-01-08T06:33:10.010Z,90.16
2019-01-08T06:35:43.548Z,90.16
2019-01-08T06:38:17.387Z,90.05
2019-01-08T06:40:57.593Z,89.89
2019-01-08T06:43:28.268Z,89.91
2019-01-08T06:46:10.463Z,89.43
2019-01-08T06:48:44.157Z,89.13
2019-01-08T06:51:17.327Z,89.04
2019-01-08T06:53:51.366Z,88.87
2019-01-08T06:56:25.353Z,88.75
2019-01-08T06:58:58.859Z,88.47
2019-01-08T07:01:32.503Z,88.17
2019-01-08T07:04:06.706Z,87.83
2019-01-08T07:06:40.270Z,87.44
2019-01-08T07:09:13.856Z,87.18
2019-01-08T07:12:02.597Z,87.45
2019-01-08T07:14:44.464Z,87.70
2019-01-08T07:17:17.728Z,87.82
2019-01-08T07:19:51.835Z,88.11
2019-01-08T07:22:25.348Z,88.42
2019-01-08T07:24:58.756Z,88.65
2019-01-08T07:27:32.345Z,88.89
2019-01-08T07:30:06.127Z,89.13
2019-01-08T07:32:39.399Z,89.48
2019-01-08T07:35:12.568Z,89.66
2019-01-08T07:37:57.609Z,89.73
2019-01-08T07:40:41.457Z,89.87
2019-01-08T07:43:15.105Z,90.19
2019-01-08T07:45:48.270Z,90.36
2019-01-08T07:48:20.840Z,90.63
2019-01-08T07:50:54.579Z,90.89
2019-01-08T07:53:27.678Z,91.15
2019-01-08T07:56:01.190Z,91.32
2019-01-08T07:58:48.475Z,91.52
2019-01-08T08:01:21.674Z,91.57
2019-01-08T08:03:54.886Z,91.63
2019-01-08T08:06:37.556Z,91.73
2019-01-08T08:09:22.849Z,91.81
2019-01-08T08:11:55.770Z,91.92
2019-01-08T08:14:28.540Z,92.00
2019-01-08T08:17:12.078Z,92.04
2019-01-08T08:19:46.966Z,92.14
2019-01-08T08:22:20.620Z,92.23
2019-01-08T08:24:55.951Z,92.21
2019-01-08T08:27:39.354Z,92.33
2019-01-08T08:30:12.565Z,92.44
2019-01-08T08:32:45.785Z,92.43
2019-01-08T08:35:29.322Z,92.42
2019-01-08T08:38:02.139Z,92.40
2019-01-08T08:40:35.849Z,92.41
2019-01-08T08:43:09.087Z,92.37
2019-01-08T08:45:51.884Z,92.23
2019-01-08T08:48:26.602Z,92.15
2019-01-08T08:51:00.175Z,92.09
2019-01-08T08:53:35.028Z,91.89
2019-01-08T08:56:08.207Z,91.60
2019-01-08T08:58:41.049Z,91.59
2019-01-08T09:01:26.644Z,91.24
2019-01-08T09:04:00.371Z,91.01
2019-01-08T09:06:33.677Z,90.80
2019-01-08T09:09:23.234Z,90.46
2019-01-08T09:11:56.483Z,90.09
2019-01-08T09:14:30.196Z,89.90
2019-01-08T09:17:03.497Z,89.73
2019-01-08T09:19:37.174Z,89.40
2019-01-08T09:22:10.481Z,89.26
2019-01-08T09:24:52.307Z,89.17
2019-01-08T09:27:25.828Z,89.16
2019-01-08T09:29:59.338Z,89.09
2019-01-08T09:32:32.613Z,88.79
2019-01-08T09:35:06.058Z,87.69
2019-01-08T09:37:39.475Z,87.00
2019-01-08T09:40:12.337Z,86.55
2019-01-08T09:42:46.256Z,86.21
2019-01-08T09:45:20.010Z,86.60
2019-01-08T09:48:02.315Z,86.88
2019-01-08T09:50:36.602Z,86.49
2019-01-08T09:53:19.050Z,86.67
2019-01-08T09:55:52.688Z,87.14
2019-01-08T09:58:25.878Z,87.30
2019-01-08T10:00:59.099Z,87.59
2019-01-08T10:03:32.300Z,87.72
2019-01-08T10:06:14.750Z,87.91
2019-01-08T10:08:47.959Z,87.80
2019-01-08T10:11:21.478Z,87.91
2019-01-08T10:13:54.938Z,87.69
2019-01-08T10:16:28.607Z,87.52
2019-01-08T10:19:02.265Z,87.16
2019-01-08T10:21:35.460Z,87.02
2019-01-08T10:24:08.983Z,86.59
2019-01-08T10:26:42.178Z,86.50
2019-01-08T10:29:24.361Z,86.74
2019-01-08T10:31:57.938Z,86.47
2019-01-08T10:34:31.830Z,86.23
2019-01-08T10:37:05.546Z,86.51
2019-01-08T10:39:47.987Z,86.94
2019-01-08T10:42:21.395Z,87.80
2019-01-08T10:44:53.844Z,88.39
2019-01-08T10:47:27.173Z,88.54
2019-01-08T10:50:01.742Z,88.55
2019-01-08T10:52:35.686Z,88.35
2019-01-08T10:55:09.091Z,88.28
2019-01-08T10:57:42.312Z,88.33
2019-01-08T11:00:24.660Z,88.37
2019-01-08T11:02:58.503Z,88.10
2019-01-08T11:05:49.083Z,87.79
2019-01-08T11:08:22.625Z,87.83
2019-01-08T11:10:56.128Z,87.58
2019-01-08T11:13:29.930Z,87.17
2019-01-08T11:16:03.122Z,86.11
2019-01-08T11:18:36.543Z,85.27
2019-01-08T11:21:09.945Z,85.43
2019-01-08T11:23:43.301Z,85.14
2019-01-08T11:26:15.465Z,85.22
2019-01-08T11:28:48.948Z,85.22
2019-01-08T11:31:30.820Z,84.97
2019-01-08T11:34:04.041Z,84.99
2019-01-08T11:36:37.241Z,85.09
2019-01-08T11:39:25.224Z,84.87
2019-01-08T11:41:56.956Z,84.72
2019-01-08T11:44:30.415Z,84.51
2019-01-08T11:47:03.947Z,85.03
2019-01-08T11:49:38.258Z,85.12
2019-01-08T11:52:11.582Z,84.97
2019-01-08T11:54:44.378Z,85.28
2019-01-08T11:57:28.401Z,85.27
2019-01-08T12:00:02.628Z,85.17
2019-01-08T12:02:47.922Z,85.06
2019-01-08T12:05:21.635Z,84.79
2019-01-08T12:07:55.349Z,84.41
2019-01-08T12:10:28.874Z,84.02
2019-01-08T12:13:02.234Z,83.16
2019-01-08T12:15:35.469Z,82.55
2019-01-08T12:18:17.435Z,82.50
2019-01-08T12:20:50.758Z,82.58
2019-01-08T12:23:24.531Z,82.20
2019-01-08T12:25:58.597Z,82.33
2019-01-08T12:28:31.781Z,82.33
2019-01-08T12:31:04.993Z,82.05
2019-01-08T12:33:38.726Z,82.07
2019-01-08T12:36:11.925Z,82.36
2019-01-08T12:38:53.869Z,82.56
2019-01-08T12:41:27.085Z,82.67
2019-01-08T12:44:00.370Z,83.43
2019-01-08T12:46:50.304Z,83.69
2019-01-08T12:49:22.382Z,83.80
2019-01-08T12:51:56.406Z,83.15
2019-01-08T12:54:39.428Z,82.97
2019-01-08T12:57:21.890Z,82.43
2019-01-08T12:59:55.585Z,82.85
2019-01-08T13:02:38.008Z,82.75
2019-01-08T13:05:11.344Z,83.10
2019-01-08T13:07:44.140Z,83.86
2019-01-08T13:10:29.192Z,83.80
2019-01-08T13:13:03.056Z,83.31
2019-01-08T13:15:45.199Z,83.22
2019-01-08T13:18:18.491Z,83.00
2019-01-08T13:20:51.667Z,82.92
2019-01-08T13:23:34.049Z,82.81
2019-01-08T13:26:06.022Z,82.43
2019-01-08T13:28:39.304Z,82.87
2019-01-08T13:31:12.634Z,83.28
2019-01-08T13:33:46.170Z,83.30
2019-01-08T13:36:19.827Z,83.49
2019-01-08T13:38:53.476Z,84.17
2019-01-08T13:41:27.219Z,85.04
2019-01-08T13:44:01.223Z,85.90
2019-01-08T13:46:33.998Z,86.29
2019-01-08T13:49:08.564Z,86.61
2019-01-08T13:51:41.764Z,86.86
2019-01-08T13:54:15.002Z,86.53
2019-01-08T13:56:48.557Z,86.44
2019-01-08T13:59:20.076Z,86.46
2019-01-08T14:01:51.581Z,86.37
2019-01-08T14:04:25.103Z,86.70
2019-01-08T14:06:58.428Z,86.94
2019-01-08T14:09:31.709Z,86.97
2019-01-08T14:12:04.896Z,86.94
2019-01-08T14:14:47.340Z,87.06
2019-01-08T14:17:20.951Z,87.21
2019-01-08T14:19:54.421Z,87.05
2019-01-08T14:22:28.801Z,87.24
2019-01-08T14:25:02.362Z,87.39
2019-01-08T14:27:36.162Z,87.53
2019-01-08T14:30:10.976Z,87.34
2019-01-08T14:32:52.977Z,87.07
2019-01-08T14:35:26.292Z,86.95
2019-01-08T14:37:59.596Z,86.95
2019-01-08T14:40:33.237Z,87.16
2019-01-08T14:43:13.856Z,87.05
2019-01-08T14:45:50.506Z,86.19
2019-01-08T14:48:24.428Z,85.51
2019-01-08T14:51:12.935Z,84.61
2019-01-08T14:53:46.156Z,83.72
2019-01-08T14:56:19.418Z,82.43
2019-01-08T14:58:52.653Z,81.71
2019-01-08T15:01:36.242Z,81.04
2019-01-08T15:04:09.464Z,80.96
2019-01-08T15:06:41.332Z,81.18
2019-01-08T15:09:14.149Z,81.06
2019-01-08T15:11:48.035Z,81.42
2019-01-08T15:14:32.344Z,81.43
2019-01-08T15:17:05.805Z,81.62
2019-01-08T15:19:39.111Z,82.13
2019-01-08T15:22:12.300Z,82.43
2019-01-08T15:24:54.653Z,82.28
2019-01-08T15:27:38.803Z,82.67
2019-01-08T15:30:11.400Z,82.56
2019-01-08T15:32:44.553Z,82.67
2019-01-08T15:35:33.615Z,83.01
2019-01-08T15:38:05.837Z,83.02
2019-01-08T15:40:37.407Z,82.95
2019-01-08T15:43:24.070Z,82.53
2019-01-08T15:45:57.691Z,82.25
2019-01-08T15:48:30.839Z,82.10
2019-01-08T15:51:12.644Z,82.44
2019-01-08T15:53:46.240Z,81.96
2019-01-08T15:56:19.463Z,81.71
2019-01-08T15:58:52.680Z,81.74
2019-01-08T16:01:35.176Z,82.08
2019-01-08T16:04:08.856Z,81.83
2019-01-08T16:06:51.861Z,81.77
2019-01-08T16:09:33.875Z,81.74
2019-01-08T16:12:07.491Z,81.79
2019-01-08T16:14:39.171Z,82.14
2019-01-08T16:17:12.766Z,82.44
2019-01-08T16:19:56.009Z,81.85
2019-01-08T16:22:29.651Z,81.34
2019-01-08T16:25:02.863Z,81.13
2019-01-08T16:27:36.132Z,80.52
2019-01-08T16:30:09.729Z,80.12
2019-01-08T16:32:43.021Z,80.81
2019-01-08T16:35:25.447Z,80.12
2019-01-08T16:37:58.757Z,79.66
2019-01-08T16:40:32.079Z,79.74
2019-01-08T16:43:05.725Z,79.21
2019-01-08T16:45:39.473Z,78.99
2019-01-08T16:48:12.933Z,78.86
2019-01-08T16:50:47.453Z,79.05
2019-01-08T16:53:29.929Z,79.19
2019-01-08T16:56:03.112Z,79.00
2019-01-08T16:58:37.378Z,79.37
2019-01-08T17:01:19.494Z,79.64
2019-01-08T17:03:53.504Z,79.40
2019-01-08T17:06:26.995Z,79.31
2019-01-08T17:09:00.167Z,79.19
2019-01-08T17:11:34.067Z,79.37
2019-01-08T17:14:08.050Z,79.00
2019-01-08T17:16:50.588Z,78.79
2019-01-08T17:19:24.136Z,78.69
2019-01-08T17:21:58.462Z,78.51
2019-01-08T17:24:41.151Z,78.59
2019-01-08T17:27:23.220Z,77.93
2019-01-08T17:29:56.503Z,77.81
2019-01-08T17:32:30.716Z,77.10
2019-01-08T17:35:04.353Z,76.74
2019-01-08T17:37:39.727Z,76.79
2019-01-08T17:40:23.322Z,76.10
2019-01-08T17:43:06.663Z,75.67
2019-01-08T17:45:40.768Z,75.90
2019-01-08T17:48:23.409Z,77.05
2019-01-08T17:50:54.857Z,78.73
2019-01-08T17:53:27.547Z,80.05
2019-01-08T17:56:00.754Z,80.99
2019-01-08T17:59:06.521Z,82.21
2019-01-08T18:01:44.369Z,83.29
2019-01-08T18:04:18.371Z,84.17
2019-01-08T18:06:53.018Z,84.55
2019-01-08T18:09:35.287Z,84.82
2019-01-08T18:12:08.512Z,84.93
2019-01-08T18:14:42.428Z,84.97
2019-01-08T18:17:15.746Z,85.05
2019-01-08T18:19:48.535Z,85.12
2019-01-08T18:22:31.051Z,84.97
2019-01-08T18:25:05.168Z,84.50
2019-01-08T18:27:39.361Z,84.29
2019-01-08T18:30:12.544Z,84.31
2019-01-08T18:32:45.799Z,84.25
2019-01-08T18:35:22.141Z,83.91
2019-01-08T18:38:04.574Z,83.23
2019-01-08T18:40:40.409Z,83.34
2019-01-08T18:43:24.651Z,82.74
2019-01-08T18:46:07.555Z,82.43
2019-01-08T18:48:51.125Z,82.13
2019-01-08T18:51:24.404Z,81.76
2019-01-08T18:53:58.093Z,81.83
2019-01-08T18:56:31.341Z,81.34
2019-01-08T18:59:04.578Z,81.47
2019-01-08T19:01:49.368Z,81.53
2019-01-08T19:04:28.400Z,81.28
2019-01-08T19:07:04.895Z,81.36
2019-01-08T19:09:39.473Z,81.50
2019-01-08T19:12:21.210Z,81.30
2019-01-08T19:14:54.546Z,81.06
2019-01-08T19:17:28.590Z,80.84
2019-01-08T19:20:01.867Z,81.12
2019-01-08T19:22:35.198Z,80.67
2019-01-08T19:25:08.372Z,80.51
2019-01-08T19:27:41.838Z,80.76
2019-01-08T19:30:25.039Z,80.55
2019-01-08T19:32:58.409Z,79.95
2019-01-08T19:35:36.221Z,78.96
2019-01-08T19:38:10.094Z,77.78
2019-01-08T19:40:57.015Z,77.17
2019-01-08T19:43:30.318Z,77.52
2019-01-08T19:46:03.148Z,77.68
2019-01-08T19:48:46.513Z,77.71
2019-01-08T19:51:20.022Z,78.47
2019-01-08T19:54:00.387Z,79.80
2019-01-08T19:56:34.381Z,80.30
2019-01-08T19:59:08.139Z,80.19
2019-01-08T20:01:43.623Z,79.96
2019-01-08T20:04:32.142Z,79.62
2019-01-08T20:07:07.389Z,78.76
2019-01-08T20:09:41.182Z,78.38
2019-01-08T20:12:27.745Z,78.18
2019-01-08T20:15:01.306Z,77.91
2019-01-08T20:17:36.481Z,77.29
2019-01-08T20:20:10.884Z,76.68
2019-01-08T20:22:44.750Z,76.41
2019-01-08T20:25:27.095Z,76.62
2019-01-08T20:28:00.790Z,76.82
2019-01-08T20:30:34.468Z,76.42
2019-01-08T20:33:07.890Z,76.75
2019-01-08T20:35:42.470Z,76.33
2019-01-08T20:38:15.667Z,76.48
2019-01-08T20:41:03.945Z,76.81
2019-01-08T20:43:38.449Z,76.32
2019-01-08T20:46:20.600Z,75.79
2019-01-08T20:48:53.753Z,75.79
2019-01-08T20:51:29.010Z,75.59
2019-01-08T20:54:02.029Z,75.90
2019-01-08T20:56:36.899Z,75.72
2019-01-08T20:59:23.805Z,75.36
2019-01-08T21:01:58.734Z,75.40
2019-01-08T21:04:35.615Z,75.37
2019-01-08T21:07:11.217Z,75.75
2019-01-08T21:09:45.435Z,75.18
2019-01-08T21:12:31.258Z,74.84
2019-01-08T21:15:16.062Z,73.78
2019-01-08T21:17:50.361Z,74.27
2019-01-08T21:20:24.170Z,74.24
2019-01-08T21:22:57.684Z,73.96
2019-01-08T21:25:31.291Z,73.44
2019-01-08T21:28:04.806Z,72.99
2019-01-08T21:30:38.595Z,73.09
2019-01-08T21:33:11.886Z,73.10
2019-01-08T21:35:45.234Z,72.80
2019-01-08T21:38:23.474Z,72.42
2019-01-08T21:40:56.800Z,72.56
2019-01-08T21:43:30.471Z,72.50
2019-01-08T21:46:03.791Z,72.35
2019-01-08T21:48:45.875Z,72.59
2019-01-08T21:51:19.363Z,72.36
2019-01-08T21:53:53.577Z,72.55
2019-01-08T21:56:36.678Z,72.67
2019-01-08T21:59:19.227Z,73.20
2019-01-08T22:02:01.533Z,72.51
2019-01-08T22:04:35.241Z,72.29
2019-01-08T22:07:09.242Z,72.62
2019-01-08T22:09:52.576Z,72.60
2019-01-08T22:12:25.827Z,72.55
2019-01-08T22:15:08.870Z,72.36
2019-01-08T22:17:51.201Z,72.20
2019-01-08T22:20:40.788Z,72.11
2019-01-08T22:23:15.689Z,71.79
2019-01-08T22:25:59.953Z,71.93
2019-01-08T22:28:49.304Z,71.86
2019-01-08T22:31:22.927Z,71.61
2019-01-08T22:33:55.231Z,71.45
2019-01-08T22:36:32.934Z,71.29
2019-01-08T22:39:22.022Z,71.27
2019-01-08T22:41:55.367Z,71.26
2019-01-08T22:44:28.954Z,70.94
2019-01-08T22:47:03.217Z,70.77
2019-01-08T22:49:37.071Z,70.42
2019-01-08T22:52:21.191Z,70.75
2019-01-08T22:54:52.922Z,70.16
2019-01-08T22:57:28.217Z,70.13
2019-01-08T23:00:01.538Z,70.10
2019-01-08T23:02:53.635Z,69.75
2019-01-08T23:05:26.933Z,69.41
2019-01-08T23:08:00.511Z,69.17
2019-01-08T23:10:35.748Z,68.87
2019-01-08T23:13:10.760Z,68.69
2019-01-08T23:15:43.839Z,68.59
2019-01-08T23:18:29.085Z,68.35
2019-01-08T23:21:14.331Z,67.47
2019-01-08T23:23:56.635Z,67.21
2019-01-08T23:26:30.848Z,66.73
2019-01-08T23:29:03.764Z,67.09
2019-01-08T23:31:37.937Z,67.14
2019-01-08T23:34:21.871Z,66.29
2019-01-08T23:36:53.911Z,66.19
2019-01-08T23:39:37.991Z,66.75
2019-01-08T23:42:11.167Z,66.29
2019-01-08T23:44:53.743Z,66.37
2019-01-08T23:47:27.077Z,66.99
2019-01-08T23:50:00.385Z,66.92
2019-01-08T23:52:56.543Z,66.61
2019-01-08T23:55:33.016Z,66.47
2019-01-08T23:58:07.552Z,66.21
